Time;durP1;ratioP1;P1;durP2;ratioP2;P2;SDS_P1;SDS_P2;PMS_P1;PMS_P2;Temp;Humidity;BMP_temperature;BMP_pressure;BME280_temperature;BME280_humidity;BME280_pressure;Samples;Min_cycle;Max_cycle;Signal;HPM_P1;HPM_P2
2022/11/24 00:00:29;;;;;;;4.38;1.13;;;;;;;6.87;78.78;98236.13;5022458;28;20045;-60
2022/11/24 00:02:56;;;;;;;3.25;0.52;;;;;;;6.88;78.12;98229.22;5020031;28;20115;-60
2022/11/24 00:05:22;;;;;;;3.33;0.73;;;;;;;6.88;78.72;98230.09;5022035;28;20049;-60
2022/11/24 00:07:49;;;;;;;3.03;0.55;;;;;;;6.87;78.21;98232.69;5017388;28;20733;-60
2022/11/24 00:10:16;;;;;;;4.50;0.68;;;;;;;6.88;78.99;98235.22;5020538;28;20045;-60
2022/11/24 00:12:43;;;;;;;3.28;0.70;;;;;;;6.86;78.95;98239.53;5023040;28;20053;-60
2022/11/24 00:15:09;;;;;;;2.92;0.70;;;;;;;6.85;78.92;98235.28;5020177;28;20135;-60
2022/11/24 00:17:36;;;;;;;7.32;0.85;;;;;;;6.82;78.21;98246.47;5019827;28;20045;-60
2022/11/24 00:20:03;;;;;;;2.88;0.40;;;;;;;6.83;78.27;98231.91;5020781;28;20111;-59
2022/11/24 00:22:29;;;;;;;7.88;0.52;;;;;;;6.79;77.44;98245.69;5021740;28;20107;-60
2022/11/24 00:24:56;;;;;;;2.45;0.50;;;;;;;6.78;78.87;98251.69;5019958;28;20053;-60
2022/11/24 00:27:23;;;;;;;2.25;0.68;;;;;;;6.76;79.09;98250.88;5021707;28;20786;-60
2022/11/24 00:29:49;;;;;;;3.00;0.98;;;;;;;6.73;78.98;98262.09;5020205;28;20072;-60
2022/11/24 00:32:16;;;;;;;2.60;0.60;;;;;;;6.71;78.32;98262.94;5022326;28;20797;-60
2022/11/24 00:34:42;;;;;;;3.17;0.40;;;;;;;6.65;78.83;98264.75;5022269;28;20080;-60
2022/11/24 00:37:09;;;;;;;4.78;0.75;;;;;;;6.63;77.92;98266.53;5021406;28;20053;-60
2022/11/24 00:39:36;;;;;;;3.17;0.50;;;;;;;6.58;78.36;98281.16;5020230;28;20115;-60
2022/11/24 00:42:02;;;;;;;4.25;0.60;;;;;;;6.55;78.95;98288.91;5024035;28;20724;-60
2022/11/24 00:44:29;;;;;;;3.05;0.65;;;;;;;6.55;77.95;98283.78;5022988;28;20041;-60
2022/11/24 00:46:56;;;;;;;6.47;1.48;;;;;;;6.52;78.79;98304.41;5016715;28;20052;-60
2022/11/24 00:49:23;;;;;;;5.28;0.90;;;;;;;6.49;78.21;98301.88;5020029;28;20631;-60
2022/11/24 00:51:50;;;;;;;5.40;0.63;;;;;;;6.45;78.77;98300.22;5014959;28;20049;-60
2022/11/24 00:54:18;;;;;;;4.75;0.70;;;;;;;6.46;77.56;98299.34;5016292;28;20537;-60
2022/11/24 00:56:45;;;;;;;2.58;0.90;;;;;;;6.42;79.23;98308.84;5014972;28;20048;-59
2022/11/24 00:59:11;;;;;;;2.60;0.50;;;;;;;6.39;77.94;98304.56;5016400;28;20068;-60
2022/11/24 01:01:38;;;;;;;2.92;0.93;;;;;;;6.36;78.18;98309.78;5015745;28;20522;-60
2022/11/24 01:04:04;;;;;;;6.35;0.65;;;;;;;6.35;79.63;98314.94;5013782;28;20077;-60
2022/11/24 01:06:31;;;;;;;3.60;0.65;;;;;;;6.33;78.60;98325.25;5016357;28;20111;-60
2022/11/24 01:08:58;;;;;;;2.85;0.82;;;;;;;6.31;79.09;98326.97;5014919;28;20042;-60
2022/11/24 01:11:28;;;;;;;5.78;1.30;;;;;;;6.28;79.25;98335.56;5021405;28;20084;-60
2022/11/24 01:13:58;;;;;;;1.73;0.60;;;;;;;6.27;78.09;98339.03;5039332;28;20041;-60
2022/11/24 01:16:27;;;;;;;4.13;0.85;;;;;;;6.25;79.01;98342.50;5057811;28;20041;-60
2022/11/24 01:18:55;;;;;;;0.95;0.40;;;;;;;6.22;78.56;98352.81;5056704;28;20557;-60
2022/11/24 01:21:22;;;;;;;1.58;0.85;;;;;;;6.21;78.08;98356.25;5059153;28;21215;-60
2022/11/24 01:23:50;;;;;;;4.75;0.82;;;;;;;6.15;79.83;98358.00;5052963;28;20500;-59
2022/11/24 01:26:21;;;;;;;0.77;0.43;;;;;;;6.18;79.07;98362.25;5054692;28;20783;-60
2022/11/24 01:28:54;;;;;;;3.03;0.90;;;;;;;6.13;78.82;98364.03;5055301;28;20462;-60
2022/11/24 01:31:24;;;;;;;4.30;0.32;;;;;;;6.15;79.40;98372.59;5059436;28;20117;-60
2022/11/24 01:33:53;;;;;;;4.03;0.60;;;;;;;6.10;78.19;98374.34;5054323;28;20447;-60
2022/11/24 01:36:21;;;;;;;1.25;0.43;;;;;;;6.07;79.27;98377.81;5056890;28;20041;-60
2022/11/24 01:38:50;;;;;;;1.75;0.93;;;;;;;6.08;79.26;98376.94;5061916;28;20072;-60
2022/11/24 01:41:22;;;;;;;3.42;0.90;;;;;;;6.08;79.77;98381.25;5057126;28;20049;-60
2022/11/24 01:43:52;;;;;;;4.53;0.63;;;;;;;6.05;78.29;98389.84;5060663;28;20048;-60
2022/11/24 01:49:13;;;;;;;2.65;0.57;;;;;;;5.99;78.37;98397.59;5090415;27;20424;-60
2022/11/24 01:51:46;;;;;;;1.92;0.40;;;;;;;5.98;78.21;98406.16;5039912;28;20079;-60
2022/11/24 01:54:19;;;;;;;3.47;0.55;;;;;;;5.98;78.62;98416.44;5041668;28;20053;-61
2022/11/24 01:56:50;;;;;;;6.55;0.75;;;;;;;5.96;79.78;98415.59;5040367;28;20112;-60
2022/11/24 01:59:20;;;;;;;4.70;0.80;;;;;;;5.95;79.74;98416.47;5040235;28;20041;-60
2022/11/24 02:01:50;;;;;;;1.77;0.43;;;;;;;5.94;79.79;98414.78;5037118;28;20102;-60
2022/11/24 02:04:22;;;;;;;3.45;0.45;;;;;;;5.91;79.92;98416.50;5039577;28;20107;-60
2022/11/24 02:06:51;;;;;;;4.00;0.93;;;;;;;5.92;79.35;98417.38;5036628;28;20045;-60
2022/11/24 02:09:22;;;;;;;4.20;0.32;;;;;;;5.90;79.91;98425.09;5044023;28;20054;-60
2022/11/24 02:11:52;;;;;;;4.43;0.68;;;;;;;5.90;79.83;98425.09;5040647;28;20169;-59
2022/11/24 02:14:21;;;;;;;3.80;0.60;;;;;;;5.88;78.79;98421.66;5043558;28;20063;-60
2022/11/24 02:16:49;;;;;;;7.78;0.65;;;;;;;5.88;79.35;98431.94;5036074;28;20083;-60
2022/11/24 02:19:52;;;;;;;3.20;0.40;;;;;;;5.86;79.11;98426.00;5040674;28;20045;-60
2022/11/24 02:25:48;;;;;;;2.75;0.50;;;;;;;5.81;79.56;98461.13;5048156;28;20409;-60
2022/11/24 02:28:18;;;;;;;2.22;0.77;;;;;;;5.81;79.11;98476.53;5016759;28;20053;-60
2022/11/24 02:30:45;;;;;;;1.63;0.50;;;;;;;5.82;79.04;98474.84;5014652;28;20804;-59
2022/11/24 02:33:12;;;;;;;3.40;0.43;;;;;;;5.83;78.89;98487.69;5016082;28;20067;-60
2022/11/24 02:35:39;;;;;;;4.32;0.95;;;;;;;5.80;78.76;98472.28;5017069;28;20903;-60
2022/11/24 02:38:10;;;;;;;3.40;0.50;;;;;;;5.80;78.83;98485.13;5019736;28;20266;-60
2022/11/24 02:40:40;;;;;;;4.78;1.27;;;;;;;5.80;79.55;98492.84;5016158;28;20097;-60
2022/11/24 02:43:12;;;;;;;6.47;0.85;;;;;;;5.79;78.52;98494.56;5014879;28;20053;-60
2022/11/24 02:45:39;;;;;;;2.35;0.65;;;;;;;5.77;79.68;98492.84;5011570;28;20111;-59
2022/11/24 02:48:06;;;;;;;3.70;0.70;;;;;;;5.77;80.21;98500.56;5015088;28;20104;-60
2022/11/24 02:50:33;;;;;;;4.55;0.73;;;;;;;5.75;78.87;98502.31;5016856;28;20046;-60
2022/11/24 02:52:59;;;;;;;6.13;0.90;;;;;;;5.75;79.13;98503.13;5019056;28;20046;-60
2022/11/24 02:55:26;;;;;;;3.25;1.00;;;;;;;5.75;79.46;98492.03;5015670;28;20103;-60
2022/11/24 02:57:53;;;;;;;5.60;0.95;;;;;;;5.72;80.19;98503.19;5016452;28;20049;-60
2022/11/24 03:00:19;;;;;;;5.38;0.77;;;;;;;5.72;79.18;98522.88;5015630;28;20058;-59
2022/11/24 03:02:47;;;;;;;6.20;0.60;;;;;;;5.70;79.77;98534.88;5012287;28;20100;-60
2022/11/24 03:05:14;;;;;;;4.07;0.50;;;;;;;5.69;79.80;98538.31;5017763;28;20076;-60
2022/11/24 03:07:41;;;;;;;5.78;0.65;;;;;;;5.68;79.14;98546.88;5015707;28;20045;-60
2022/11/24 03:10:08;;;;;;;5.00;0.80;;;;;;;5.64;79.75;98541.75;5019195;28;20081;-59
2022/11/24 03:12:34;;;;;;;5.82;1.00;;;;;;;5.65;79.91;98540.91;5017051;28;20052;-60
2022/11/24 03:15:02;;;;;;;5.72;0.98;;;;;;;5.65;80.43;98546.03;5016854;28;20076;-59
2022/11/24 03:17:28;;;;;;;4.63;0.95;;;;;;;5.64;80.24;98541.75;5016768;28;20103;-60
2022/11/24 03:19:55;;;;;;;4.55;0.82;;;;;;;5.65;79.91;98553.75;5016102;28;20061;-59
2022/11/24 03:22:29;;;;;;;7.00;0.90;;;;;;;5.64;79.40;98546.06;5015603;28;20206;-60
2022/11/24 03:24:56;;;;;;;6.30;0.93;;;;;;;5.63;79.57;98555.47;5018133;28;20555;-60
2022/11/24 03:27:22;;;;;;;5.85;1.23;;;;;;;5.62;78.91;98550.34;5017698;28;20461;-60
2022/11/24 03:29:49;;;;;;;7.13;0.90;;;;;;;5.65;79.90;98558.88;5011898;28;20104;-60
2022/11/24 03:32:16;;;;;;;2.78;0.52;;;;;;;5.61;80.09;98557.19;5010814;28;20108;-60
2022/11/24 03:34:42;;;;;;;4.32;1.17;;;;;;;5.66;80.12;98559.75;5014532;28;20191;-60
2022/11/24 03:37:09;;;;;;;6.55;0.75;;;;;;;5.69;80.62;98566.56;5006382;28;20045;-60
2022/11/24 03:39:35;;;;;;;3.72;0.77;;;;;;;5.69;79.90;98557.16;5004488;28;20081;-60
2022/11/24 03:42:02;;;;;;;5.05;0.93;;;;;;;5.72;80.85;98566.56;5005434;28;20045;-60
2022/11/24 03:44:29;;;;;;;10.48;2.50;;;;;;;5.71;79.83;98570.00;4997099;28;20821;-60
2022/11/24 03:46:56;;;;;;;5.47;0.85;;;;;;;5.72;80.95;98561.41;4994210;28;20085;-60
2022/11/24 03:49:22;;;;;;;8.70;0.70;;;;;;;5.73;79.70;98570.81;4998394;28;20100;-60
2022/11/24 03:51:49;;;;;;;2.83;0.68;;;;;;;5.73;80.50;98565.69;4996724;28;20054;-60
2022/11/24 03:54:15;;;;;;;8.77;1.42;;;;;;;5.73;80.08;98571.69;4995725;28;20054;-60
2022/11/24 03:56:42;;;;;;;10.43;1.30;;;;;;;5.74;79.86;98572.53;4993638;28;20088;-60
2022/11/24 03:59:09;;;;;;;7.80;1.20;;;;;;;5.73;80.08;98583.66;5000091;28;20049;-60
2022/11/24 04:01:35;;;;;;;7.28;1.15;;;;;;;5.74;81.29;98593.94;5001226;28;20054;-60
2022/11/24 04:04:02;;;;;;;6.13;0.75;;;;;;;5.76;81.09;98596.50;4999045;28;20046;-60
2022/11/24 04:06:29;;;;;;;3.75;0.90;;;;;;;5.76;79.99;98596.50;5002474;28;20538;-60
2022/11/24 04:08:55;;;;;;;5.70;0.82;;;;;;;5.77;80.87;98593.91;5001568;28;20111;-60
2022/11/24 04:14:08;;;;;;;6.85;0.75;;;;;;;5.76;81.35;98602.50;4999396;28;20105;-59
2022/11/24 04:16:39;;;;;;;3.40;0.40;;;;;;;5.74;79.81;98605.94;4999357;28;20053;-60
2022/11/24 04:19:06;;;;;;;7.70;1.05;;;;;;;5.75;80.09;98611.06;5004553;28;20045;-60
2022/11/24 04:21:32;;;;;;;4.00;0.73;;;;;;;5.73;81.30;98619.63;4998482;28;20101;-60
2022/11/24 04:23:59;;;;;;;10.43;1.00;;;;;;;5.71;80.50;98623.94;5002718;28;20139;-60
2022/11/24 04:26:26;;;;;;;5.95;0.95;;;;;;;5.72;80.19;98628.22;4998890;28;20144;-60
2022/11/24 04:28:53;;;;;;;4.57;1.27;;;;;;;5.71;80.69;98629.91;4997695;28;20038;-60
2022/11/24 04:31:19;;;;;;;10.23;2.33;;;;;;;5.69;80.70;98625.66;4998281;28;20061;-60
2022/11/24 04:33:46;;;;;;;11.65;0.95;;;;;;;5.66;80.77;98637.66;5002606;28;20041;-60
2022/11/24 04:36:13;;;;;;;7.32;1.08;;;;;;;5.65;79.65;98635.94;5003787;28;20076;-60
2022/11/24 04:38:39;;;;;;;6.07;0.63;;;;;;;5.65;80.94;98641.06;5002961;28;20095;-60
2022/11/24 04:41:26;;;;;;;5.00;0.95;;;;;;;5.62;81.08;98635.97;5000966;28;20108;-60
2022/11/24 04:43:52;;;;;;;4.82;0.70;;;;;;;5.61;80.11;98652.22;5002984;28;20048;-60
2022/11/24 04:46:19;;;;;;;9.70;1.40;;;;;;;5.56;80.17;98651.41;4999379;28;20529;-60
2022/11/24 04:48:46;;;;;;;8.80;1.05;;;;;;;5.58;80.69;98653.97;5000832;28;20046;-60
2022/11/24 04:51:14;;;;;;;7.30;1.02;;;;;;;5.58;81.27;98656.53;4996251;28;20148;-60
2022/11/24 04:53:40;;;;;;;5.28;0.77;;;;;;;5.57;80.61;98658.25;4998580;28;20057;-60
2022/11/24 04:56:07;;;;;;;8.57;1.02;;;;;;;5.57;81.16;98647.97;5002698;28;20054;-60
2022/11/24 04:58:34;;;;;;;6.78;0.73;;;;;;;5.55;80.66;98662.56;5001722;28;20100;-60
2022/11/24 05:01:04;;;;;;;5.47;1.15;;;;;;;5.55;81.03;98665.13;4999454;28;20045;-60
2022/11/24 05:03:31;;;;;;;10.57;1.02;;;;;;;5.52;81.58;98660.84;5001077;28;20038;-60
2022/11/24 05:05:58;;;;;;;7.75;1.25;;;;;;;5.53;80.79;98656.56;5001452;28;20120;-60
2022/11/24 05:08:25;;;;;;;11.00;1.58;;;;;;;5.50;80.77;98662.56;4999668;28;20054;-60
2022/11/24 05:10:52;;;;;;;7.50;1.88;;;;;;;5.50;81.26;98666.84;5002789;28;20129;-60
2022/11/24 05:13:18;;;;;;;5.90;0.82;;;;;;;5.49;80.97;98663.44;5001197;28;20137;-60
2022/11/24 05:15:45;;;;;;;6.13;2.05;;;;;;;5.50;80.47;98666.84;4997975;28;20532;-60
2022/11/24 05:18:14;;;;;;;6.30;1.83;;;;;;;5.49;80.26;98670.28;4998878;28;20582;-60
2022/11/24 05:20:43;;;;;;;8.13;0.95;;;;;;;5.49;80.74;98670.28;4995392;28;20054;-60
2022/11/24 05:23:10;;;;;;;8.50;1.20;;;;;;;5.48;80.99;98663.44;4997561;28;20081;-60
2022/11/24 05:25:36;;;;;;;8.90;1.60;;;;;;;5.48;80.16;98684.84;4998678;28;20042;-60
2022/11/24 05:28:07;;;;;;;5.88;1.42;;;;;;;5.47;81.26;98687.41;4992968;28;20053;-60
2022/11/24 05:30:37;;;;;;;11.25;1.42;;;;;;;5.48;81.20;98687.41;4993321;28;20081;-60
2022/11/24 05:33:06;;;;;;;10.45;0.80;;;;;;;5.46;81.58;98691.69;4994718;28;20549;-60
2022/11/24 05:35:35;;;;;;;10.40;1.00;;;;;;;5.48;81.35;98699.41;4993659;28;20153;-60
2022/11/24 05:38:03;;;;;;;7.85;0.85;;;;;;;5.47;81.74;98700.25;4997825;28;20056;-60
2022/11/24 05:40:30;;;;;;;10.23;0.75;;;;;;;5.47;80.86;98707.97;4998580;28;20073;-60
2022/11/24 05:42:58;;;;;;;10.15;1.30;;;;;;;5.47;80.62;98700.25;5000503;28;20568;-60
2022/11/24 05:45:24;;;;;;;5.72;1.45;;;;;;;5.46;80.93;98701.09;4994643;28;20132;-60
2022/11/24 05:47:52;;;;;;;6.47;1.10;;;;;;;5.44;81.65;98707.97;4993879;28;20191;-60
2022/11/24 05:50:20;;;;;;;13.05;1.58;;;;;;;5.45;80.91;98722.50;4996465;28;20131;-60
2022/11/24 05:52:48;;;;;;;5.00;0.75;;;;;;;5.43;81.74;98716.53;4993759;28;20169;-60
2022/11/24 05:55:18;;;;;;;8.30;1.20;;;;;;;5.43;81.58;98712.25;4992673;28;20552;-60
2022/11/24 05:57:45;;;;;;;5.97;1.38;;;;;;;5.44;81.46;98707.97;5001405;28;20050;-60
2022/11/24 06:00:12;;;;;;;10.23;1.98;;;;;;;5.43;81.28;98711.41;4995919;28;20073;-60
2022/11/24 06:02:38;;;;;;;10.30;1.17;;;;;;;5.43;80.66;98721.69;4991917;28;20092;-60
2022/11/24 06:05:06;;;;;;;8.57;0.77;;;;;;;5.41;80.50;98724.25;4997250;28;20050;-60
2022/11/24 06:07:32;;;;;;;6.68;1.38;;;;;;;5.40;81.44;98733.66;4994807;28;20081;-60
2022/11/24 06:09:59;;;;;;;6.20;1.13;;;;;;;5.38;81.86;98724.25;4995294;28;20050;-60
2022/11/24 06:12:25;;;;;;;4.68;0.73;;;;;;;5.38;80.98;98735.34;4995381;28;20141;-60
2022/11/24 06:14:52;;;;;;;9.70;1.70;;;;;;;5.40;81.60;98728.53;4997143;28;20546;-60
2022/11/24 06:17:18;;;;;;;8.18;1.83;;;;;;;5.42;80.87;98740.50;4999617;28;20509;-60
2022/11/24 06:19:48;;;;;;;6.10;0.90;;;;;;;5.43;80.78;98737.09;5002185;28;20041;-60
2022/11/24 06:22:16;;;;;;;5.82;1.08;;;;;;;5.45;80.99;98737.91;4995365;28;20577;-60
2022/11/24 06:24:43;;;;;;;6.75;1.83;;;;;;;5.47;81.42;98725.94;4995859;28;20514;-60
2022/11/24 06:27:09;;;;;;;13.43;0.88;;;;;;;5.47;82.41;98733.66;4999200;28;20081;-61
2022/11/24 06:29:36;;;;;;;5.97;1.08;;;;;;;5.52;81.84;98737.03;4997349;28;20103;-60
2022/11/24 06:32:03;;;;;;;10.23;1.23;;;;;;;5.53;82.39;98754.16;4998715;28;20510;-60
2022/11/24 06:34:29;;;;;;;10.70;2.25;;;;;;;5.55;80.71;98761.84;4999584;28;20045;-60
2022/11/24 06:36:56;;;;;;;14.38;1.58;;;;;;;5.55;81.79;98754.16;4990848;28;20057;-60
2022/11/24 06:39:23;;;;;;;9.05;1.83;;;;;;;5.55;81.73;98755.03;4996161;28;20541;-60
2022/11/24 06:41:50;;;;;;;13.23;1.70;;;;;;;5.54;81.45;98745.59;4998579;28;20082;-60
2022/11/24 06:44:17;;;;;;;11.65;1.50;;;;;;;5.54;81.91;98740.44;4997614;28;20045;-60
2022/11/24 06:46:44;;;;;;;8.80;2.03;;;;;;;5.53;81.57;98749.03;4997472;28;20042;-60
2022/11/24 06:49:10;;;;;;;9.70;1.23;;;;;;;5.55;81.78;98765.28;4996163;28;20074;-60
2022/11/24 06:51:37;;;;;;;7.30;1.35;;;;;;;5.55;81.20;98762.72;4996650;28;20133;-60
2022/11/24 06:54:09;;;;;;;8.90;1.85;;;;;;;5.53;80.72;98767.00;4994431;28;20046;-60
2022/11/24 06:56:35;;;;;;;6.45;1.23;;;;;;;5.52;81.91;98767.88;4993662;28;20080;-60
2022/11/24 06:59:02;;;;;;;14.95;2.20;;;;;;;5.52;82.05;98773.00;4995815;28;21305;-60
2022/11/24 07:01:29;;;;;;;10.55;1.77;;;;;;;5.52;81.98;98773.00;4996301;28;20069;-60
2022/11/24 07:03:57;;;;;;;12.27;1.75;;;;;;;5.55;81.34;98783.28;4998156;28;20054;-60
2022/11/24 07:06:25;;;;;;;16.27;1.35;;;;;;;5.52;81.00;98789.28;4997604;28;20074;-60
2022/11/24 07:08:52;;;;;;;11.15;1.38;;;;;;;5.56;82.35;98800.38;4994876;28;20505;-60
2022/11/24 07:11:21;;;;;;;12.45;1.23;;;;;;;5.62;82.14;98810.66;4996430;28;20044;-60
2022/11/24 07:13:50;;;;;;;10.20;2.15;;;;;;;5.63;81.01;98822.63;4997369;28;20054;-61
2022/11/24 07:16:25;;;;;;;9.35;1.40;;;;;;;5.68;82.16;98819.19;4993663;28;20065;-60
2022/11/24 07:18:52;;;;;;;5.68;1.88;;;;;;;5.70;81.72;98822.59;4999183;28;20089;-60
2022/11/24 07:21:21;;;;;;;9.30;2.70;;;;;;;5.68;82.29;98829.47;5001621;28;20429;-60
2022/11/24 07:23:50;;;;;;;7.97;0.73;;;;;;;5.64;81.10;98824.34;5004626;28;20583;-59
2022/11/24 07:26:17;;;;;;;7.70;0.68;;;;;;;5.59;82.03;98820.94;4997625;28;20060;-60
2022/11/24 07:28:44;;;;;;;12.88;1.38;;;;;;;5.63;80.96;98840.63;4993519;28;20050;-60
2022/11/24 07:31:14;;;;;;;13.50;1.55;;;;;;;5.66;81.72;98835.47;4993164;28;20488;-60
2022/11/24 07:33:41;;;;;;;8.48;1.95;;;;;;;5.68;81.68;98845.75;4995826;28;20506;-60
2022/11/24 07:36:08;;;;;;;4.78;1.65;;;;;;;5.68;81.21;98839.75;5002302;28;20084;-60
2022/11/24 07:38:35;;;;;;;14.00;1.75;;;;;;;5.75;81.01;98842.28;5000040;28;20042;-60
2022/11/24 07:41:03;;;;;;;8.23;1.02;;;;;;;5.76;80.82;98838.00;4997176;28;20088;-60
2022/11/24 07:43:31;;;;;;;17.35;1.63;;;;;;;5.74;82.00;98834.63;4994016;28;20157;-60
2022/11/24 07:45:58;;;;;;;10.63;1.15;;;;;;;5.72;81.56;98832.03;5000967;28;20038;-59
2022/11/24 07:48:25;;;;;;;7.22;1.02;;;;;;;5.69;81.84;98836.31;4999865;28;20050;-60
2022/11/24 07:50:52;;;;;;;13.40;1.40;;;;;;;5.69;81.31;98833.75;4999602;28;20050;-60
2022/11/24 07:53:21;;;;;;;9.43;1.83;;;;;;;5.65;81.00;98831.19;4997993;28;20062;-60
2022/11/24 07:55:54;;;;;;;7.15;1.52;;;;;;;5.63;81.39;98834.63;4999152;28;20073;-60
2022/11/24 07:58:22;;;;;;;13.45;1.40;;;;;;;5.70;81.94;98838.00;4995084;28;20046;-60
2022/11/24 08:00:53;;;;;;;10.90;1.52;;;;;;;5.68;80.95;98829.47;5000936;28;20128;-60
2022/11/24 08:03:19;;;;;;;9.90;1.73;;;;;;;5.73;82.00;98832.88;5002481;28;20556;-60
2022/11/24 08:05:55;;;;;;;7.32;0.90;;;;;;;5.69;81.51;98815.75;4999009;28;21302;-60
2022/11/24 08:08:42;;;;;;;7.10;0.98;;;;;;;5.71;82.17;98824.34;4998411;28;20056;-60
2022/11/24 08:11:12;;;;;;;12.95;1.30;;;;;;;5.80;81.61;98824.28;4998802;28;20136;-60
2022/11/24 08:13:40;;;;;;;11.43;2.08;;;;;;;5.90;81.74;98819.97;4999577;28;20038;-60
2022/11/24 08:16:09;;;;;;;8.88;1.52;;;;;;;5.98;81.69;98812.25;4993010;28;20049;-60
2022/11/24 08:18:36;;;;;;;8.80;1.27;;;;;;;6.04;81.48;98802.84;4997796;28;20137;-60
2022/11/24 08:21:04;;;;;;;4.88;1.75;;;;;;;6.02;79.54;98794.22;4996981;28;20409;-60
2022/11/24 08:23:31;;;;;;;7.40;1.92;;;;;;;5.94;79.85;98795.16;5001456;28;20429;-60
2022/11/24 08:26:03;;;;;;;12.60;1.85;;;;;;;6.01;79.57;98801.97;4994659;28;20151;-60
2022/11/24 08:28:31;;;;;;;10.75;1.55;;;;;;;6.03;80.28;98807.94;4995500;28;20138;-59
2022/11/24 08:31:03;;;;;;;13.63;1.35;;;;;;;6.10;81.50;98798.50;4992452;28;20069;-60
2022/11/24 08:33:31;;;;;;;13.60;2.17;;;;;;;6.18;80.32;98812.19;4996402;28;20615;-59
2022/11/24 08:36:16;;;;;;;12.57;1.85;;;;;;;6.26;80.54;98813.03;4994742;28;20476;-60
2022/11/24 08:38:44;;;;;;;7.90;1.50;;;;;;;6.29;80.97;98822.44;4997314;28;20128;-60
2022/11/24 08:41:14;;;;;;;7.10;1.23;;;;;;;6.29;80.17;98819.88;5005185;28;20501;-60
2022/11/24 08:43:41;;;;;;;13.25;1.95;;;;;;;6.31;80.20;98820.69;4999864;28;20046;-60
2022/11/24 08:46:12;;;;;;;16.40;2.30;;;;;;;6.34;79.98;98822.38;5000788;28;20057;-60
2022/11/24 08:48:39;;;;;;;8.20;1.05;;;;;;;6.38;80.50;98819.81;5002111;28;20045;-59
2022/11/24 08:51:09;;;;;;;7.93;1.35;;;;;;;6.41;80.99;98821.50;5000487;28;20078;-57
2022/11/24 08:53:36;;;;;;;6.60;1.60;;;;;;;6.39;81.22;98812.94;4998537;28;20046;-60
2022/11/24 08:56:04;;;;;;;15.73;1.92;;;;;;;6.46;80.00;98824.06;5001466;28;20053;-59
2022/11/24 08:58:33;;;;;;;7.90;0.65;;;;;;;6.53;80.62;98820.59;5000412;28;20038;-60
2022/11/24 09:01:09;;;;;;;23.30;1.90;;;;;;;6.55;79.88;98818.84;5000121;28;20049;-60
2022/11/24 09:03:37;;;;;;;;;;;;;;;6.49;79.47;98826.63;4999301;28;20468;-60
2022/11/24 09:06:05;;;;;;;11.77;1.30;;;;;;;6.53;80.78;98818.00;4999343;28;19964;-60
2022/11/24 09:08:32;;;;;;;12.20;1.48;;;;;;;6.58;79.35;98818.00;4996689;28;20042;-60
2022/11/24 09:11:03;;;;;;;9.30;0.80;;;;;;;6.61;79.95;98813.66;5000350;28;20628;-60
2022/11/24 09:13:29;;;;;;;15.15;2.85;;;;;;;6.57;79.45;98817.13;4999545;28;20581;-59
2022/11/24 09:16:00;;;;;;;11.95;1.08;;;;;;;6.53;80.68;98813.72;5000027;28;20563;-60
2022/11/24 09:18:27;;;;;;;11.02;1.75;;;;;;;6.55;79.59;98813.69;4998994;28;20046;-60
2022/11/24 09:21:06;;;;;;;8.88;1.23;;;;;;;6.50;79.74;98802.59;4998918;28;20136;-60
2022/11/24 09:23:33;;;;;;;9.57;1.05;;;;;;;6.55;81.08;98805.97;4998882;28;20512;-60
2022/11/24 09:26:04;;;;;;;8.73;1.30;;;;;;;6.56;80.92;98800.00;5000275;28;20073;-60
2022/11/24 09:28:31;;;;;;;7.25;1.30;;;;;;;6.48;79.79;98781.19;5002752;28;20124;-60
2022/11/24 09:31:01;;;;;;;9.00;0.73;;;;;;;6.51;79.43;98787.16;5003709;28;20053;-60
2022/11/24 09:33:28;;;;;;;7.40;0.93;;;;;;;6.48;79.92;98779.44;5000237;28;20057;-60
2022/11/24 09:35:55;;;;;;;13.25;2.10;;;;;;;6.52;79.44;98777.72;4997973;28;20081;-60
2022/11/24 09:38:22;;;;;;;9.85;1.75;;;;;;;6.50;79.30;98779.44;5001200;28;20096;-60
2022/11/24 09:40:49;;;;;;;7.85;1.05;;;;;;;6.48;80.54;98773.47;4998043;28;20082;-60
2022/11/24 09:43:35;;;;;;;9.70;1.35;;;;;;;6.48;81.19;98765.75;4998458;28;20085;-60
2022/11/24 09:46:14;;;;;;;11.40;1.88;;;;;;;6.49;81.34;98757.16;5000100;28;20073;-60
2022/11/24 09:48:47;;;;;;;11.00;1.27;;;;;;;6.56;81.21;98757.09;4997312;28;20058;-60
2022/11/24 09:51:14;;;;;;;6.25;0.93;;;;;;;6.58;81.25;98751.94;5001174;28;20148;-60
2022/11/24 09:53:47;;;;;;;7.25;1.00;;;;;;;6.55;80.48;98749.38;4996772;28;20049;-60
2022/11/24 09:58:53;;;;;;;9.57;1.85;;;;;;;6.60;80.38;98744.22;5063714;27;20407;-60
2022/11/24 10:01:27;;;;;;;16.27;2.67;;;;;;;6.60;81.19;98747.66;5028979;28;20117;-60
2022/11/24 10:03:55;;;;;;;11.57;1.55;;;;;;;6.63;80.07;98750.22;5040658;28;20444;-60
2022/11/24 10:06:30;;;;;;;13.43;2.15;;;;;;;6.67;80.83;98751.88;5040049;28;20053;-60
2022/11/24 10:11:41;;;;;;;11.43;2.10;;;;;;;6.69;80.84;98760.44;5025959;28;20409;-60
2022/11/24 10:22:34;;;;;;;4.00;1.25;;;;;;;7.13;81.42;98754.91;5055164;27;20385;-60
2022/11/24 10:27:45;;;;;;;12.73;1.77;;;;;;;8.12;80.29;98752.09;5119150;27;20405;-60
2022/11/24 10:30:17;;;;;;;10.23;1.85;;;;;;;8.22;79.58;98753.69;5055062;28;20068;-60
2022/11/24 10:32:47;;;;;;;6.53;1.10;;;;;;;8.41;79.86;98748.22;5055073;28;20067;-60
2022/11/24 10:35:17;;;;;;;15.57;2.92;;;;;;;8.62;79.33;98741.09;5058349;28;20052;-60
2022/11/24 10:43:10;;;;;;;10.88;1.50;;;;;;;8.96;79.04;98724.16;5054182;28;20542;-60
2022/11/24 10:45:38;;;;;;;11.05;1.52;;;;;;;9.08;78.77;98723.09;5019679;28;20045;-61
2022/11/24 10:48:17;;;;;;;16.27;1.88;;;;;;;9.21;78.54;98706.50;5021008;28;20064;-59
2022/11/24 10:50:44;;;;;;;11.88;3.17;;;;;;;9.34;79.04;98703.66;5018868;28;20649;-61
2022/11/24 10:53:29;;;;;;;14.57;1.63;;;;;;;9.36;78.18;98694.16;5017343;28;20096;-60
2022/11/24 10:58:34;;;;;;;12.98;1.38;;;;;;;9.46;78.32;98702.59;5049568;28;20406;-60
2022/11/24 11:01:32;;;;;;;13.20;2.13;;;;;;;9.39;77.97;98692.38;5021666;28;20501;-60
2022/11/24 11:04:00;;;;;;;17.48;1.88;;;;;;;9.49;78.31;98689.63;5017740;28;20045;-60
2022/11/24 11:11:43;;;;;;;13.95;2.85;;;;;;;9.54;77.74;98679.16;5026781;28;20414;-60
2022/11/24 11:14:11;;;;;;;7.07;2.38;;;;;;;9.51;78.65;98685.25;5003606;28;20172;-60
2022/11/24 11:16:42;;;;;;;12.93;4.13;;;;;;;9.55;78.64;98675.72;5003818;28;20045;-60
2022/11/24 11:19:33;;;;;;;13.05;1.98;;;;;;;9.55;78.81;98686.88;5001044;28;20152;-60
2022/11/24 11:22:27;;;;;;;23.50;2.47;;;;;;;9.58;78.89;98675.63;5006847;28;20052;-59
2022/11/24 11:27:45;;;;;;;7.43;0.90;;;;;;;9.58;79.03;98655.81;5037661;27;20751;-60
2022/11/24 11:32:58;;;;;;;15.55;4.40;;;;;;;9.65;79.04;98651.34;5041859;27;20412;-60
2022/11/24 11:35:45;;;;;;;14.88;3.60;;;;;;;9.67;79.61;98639.25;5038860;28;20053;-59
2022/11/24 11:38:11;;;;;;;9.07;2.35;;;;;;;9.72;79.39;98627.06;5043772;28;20516;-60
2022/11/24 11:40:41;;;;;;;16.05;4.25;;;;;;;9.74;79.05;98614.97;5058497;28;20129;-60
2022/11/24 11:43:25;;;;;;;14.30;3.28;;;;;;;9.82;79.44;98617.38;5061382;28;20087;-59
2022/11/24 11:46:02;;;;;;;12.23;3.72;;;;;;;9.96;79.80;98614.47;5056050;28;20711;-59
2022/11/24 11:48:32;;;;;;;16.50;3.25;;;;;;;10.11;78.42;98607.22;5061910;28;20051;-59
2022/11/24 11:51:34;;;;;;;15.13;2.92;;;;;;;10.26;78.87;98580.13;5059176;28;20033;-60
2022/11/24 11:56:43;;;;;;;10.40;2.13;;;;;;;10.33;78.00;98565.31;5024629;27;20906;-61
2022/11/24 11:59:36;;;;;;;14.27;1.67;;;;;;;10.33;77.79;98565.31;5018736;28;20772;-60
2022/11/24 12:05:25;;;;;;;18.17;2.47;;;;;;;10.64;77.81;98559.34;5036437;28;20421;-59
2022/11/24 12:13:43;;;;;;;15.52;1.75;;;;;;;10.70;76.88;98556.59;5044750;28;20395;-60
2022/11/24 12:16:23;;;;;;;15.77;1.67;;;;;;;10.74;76.35;98545.25;4997774;28;20054;-60
2022/11/24 12:19:14;;;;;;;10.23;1.45;;;;;;;10.71;76.86;98534.13;5000698;28;20138;-59
2022/11/24 12:33:11;;;;;;;18.83;2.28;;;;;;;10.53;77.14;98531.16;5047689;27;20405;-60
2022/11/24 12:43:38;;;;;;;16.77;2.72;;;;;;;10.83;76.56;98513.06;5065211;27;20397;-60
2022/11/24 12:46:33;;;;;;;22.35;3.40;;;;;;;10.63;76.04;98500.69;5043701;28;20072;-60
2022/11/24 12:51:54;;;;;;;15.00;1.90;;;;;;;10.67;77.15;98494.53;5038044;28;20896;-59
2022/11/24 12:54:23;;;;;;;11.75;1.05;;;;;;;10.69;77.29;98484.97;4998357;28;20046;-59
2022/11/24 12:57:06;;;;;;;14.18;2.17;;;;;;;10.70;77.01;98484.06;5002243;28;20084;-59
2022/11/24 13:05:41;;;;;;;16.05;2.47;;;;;;;10.97;76.56;98473.81;5033606;27;20399;-60
2022/11/24 13:08:08;;;;;;;17.23;2.17;;;;;;;11.05;76.17;98460.63;4993832;28;20050;-60
2022/11/24 13:10:37;;;;;;;12.45;1.75;;;;;;;11.03;75.76;98462.41;5001225;28;20041;-60
2022/11/24 13:13:27;;;;;;;10.00;2.08;;;;;;;11.04;75.90;98454.59;4995369;28;20070;-60